sensor_id;sensor_type;location;lat;lon;timestamp;P1;durP1;ratioP1;P2;durP2;ratioP2
34060;SDS011;20336;-33.424;-70.638;2022-07-23T00:00:19;28.80;;;13.03;;
34060;SDS011;20336;-33.424;-70.638;2022-07-23T00:02:46;32.87;;;14.70;;
34060;SDS011;20336;-33.424;-70.638;2022-07-23T00:05:13;35.10;;;15.77;;
34060;SDS011;20336;-33.424;-70.638;2022-07-23T00:07:40;28.43;;;15.00;;
34060;SDS011;20336;-33.424;-70.638;2022-07-23T00:10:07;28.90;;;14.97;;
34060;SDS011;20336;-33.424;-70.638;2022-07-23T00:12:34;30.27;;;16.23;;
34060;SDS011;20336;-33.424;-70.638;2022-07-23T00:15:03;30.87;;;15.93;;
34060;SDS011;20336;-33.424;-70.638;2022-07-23T00:17:30;38.77;;;15.90;;
34060;SDS011;20336;-33.424;-70.638;2022-07-23T00:19:58;31.93;;;14.97;;
34060;SDS011;20336;-33.424;-70.638;2022-07-23T00:22:25;29.77;;;15.50;;
34060;SDS011;20336;-33.424;-70.638;2022-07-23T00:24:53;31.37;;;14.73;;
34060;SDS011;20336;-33.424;-70.638;2022-07-23T00:27:19;28.03;;;15.40;;
34060;SDS011;20336;-33.424;-70.638;2022-07-23T00:29:46;28.10;;;15.00;;
34060;SDS011;20336;-33.424;-70.638;2022-07-23T00:32:13;35.03;;;16.50;;
34060;SDS011;20336;-33.424;-70.638;2022-07-23T00:34:40;32.50;;;15.67;;
34060;SDS011;20336;-33.424;-70.638;2022-07-23T00:37:07;29.37;;;16.07;;
34060;SDS011;20336;-33.424;-70.638;2022-07-23T00:39:34;35.30;;;17.00;;
34060;SDS011;20336;-33.424;-70.638;2022-07-23T00:42:00;29.80;;;15.57;;
34060;SDS011;20336;-33.424;-70.638;2022-07-23T00:44:27;32.83;;;16.07;;
34060;SDS011;20336;-33.424;-70.638;2022-07-23T00:46:56;32.30;;;16.60;;
34060;SDS011;20336;-33.424;-70.638;2022-07-23T00:49:24;28.33;;;15.90;;
34060;SDS011;20336;-33.424;-70.638;2022-07-23T00:51:53;33.67;;;15.97;;
34060;SDS011;20336;-33.424;-70.638;2022-07-23T00:54:24;30.23;;;15.97;;
34060;SDS011;20336;-33.424;-70.638;2022-07-23T00:56:52;31.30;;;15.07;;
34060;SDS011;20336;-33.424;-70.638;2022-07-23T00:59:20;26.33;;;13.80;;
34060;SDS011;20336;-33.424;-70.638;2022-07-23T01:01:46;27.30;;;13.90;;
34060;SDS011;20336;-33.424;-70.638;2022-07-23T01:04:14;22.23;;;12.67;;
34060;SDS011;20336;-33.424;-70.638;2022-07-23T01:06:41;24.47;;;12.73;;
34060;SDS011;20336;-33.424;-70.638;2022-07-23T01:09:10;23.53;;;12.73;;
34060;SDS011;20336;-33.424;-70.638;2022-07-23T01:11:37;23.80;;;12.10;;
34060;SDS011;20336;-33.424;-70.638;2022-07-23T01:14:15;23.97;;;13.50;;
34060;SDS011;20336;-33.424;-70.638;2022-07-23T01:16:45;30.13;;;13.83;;
34060;SDS011;20336;-33.424;-70.638;2022-07-23T01:19:13;22.17;;;12.60;;
34060;SDS011;20336;-33.424;-70.638;2022-07-23T01:21:43;21.20;;;12.53;;
34060;SDS011;20336;-33.424;-70.638;2022-07-23T01:24:12;22.67;;;12.67;;
34060;SDS011;20336;-33.424;-70.638;2022-07-23T01:26:44;26.43;;;12.87;;
34060;SDS011;20336;-33.424;-70.638;2022-07-23T01:29:12;21.63;;;12.17;;
34060;SDS011;20336;-33.424;-70.638;2022-07-23T01:31:39;27.60;;;13.87;;
34060;SDS011;20336;-33.424;-70.638;2022-07-23T01:34:07;35.77;;;15.47;;
34060;SDS011;20336;-33.424;-70.638;2022-07-23T01:36:34;36.73;;;17.73;;
34060;SDS011;20336;-33.424;-70.638;2022-07-23T01:39:05;37.30;;;18.47;;
34060;SDS011;20336;-33.424;-70.638;2022-07-23T01:41:33;44.23;;;20.70;;
34060;SDS011;20336;-33.424;-70.638;2022-07-23T01:44:00;37.97;;;19.10;;
34060;SDS011;20336;-33.424;-70.638;2022-07-23T01:46:27;40.53;;;19.97;;
34060;SDS011;20336;-33.424;-70.638;2022-07-23T01:48:54;45.30;;;19.70;;
34060;SDS011;20336;-33.424;-70.638;2022-07-23T01:51:21;37.43;;;19.20;;
34060;SDS011;20336;-33.424;-70.638;2022-07-23T01:53:48;37.90;;;18.93;;
34060;SDS011;20336;-33.424;-70.638;2022-07-23T01:56:14;40.80;;;19.10;;
34060;SDS011;20336;-33.424;-70.638;2022-07-23T01:58:41;40.67;;;20.40;;
34060;SDS011;20336;-33.424;-70.638;2022-07-23T02:01:08;35.07;;;18.37;;
34060;SDS011;20336;-33.424;-70.638;2022-07-23T02:03:35;35.77;;;19.60;;
34060;SDS011;20336;-33.424;-70.638;2022-07-23T02:06:02;38.30;;;20.10;;
34060;SDS011;20336;-33.424;-70.638;2022-07-23T02:08:29;39.03;;;19.40;;
34060;SDS011;20336;-33.424;-70.638;2022-07-23T02:10:56;35.17;;;17.73;;
34060;SDS011;20336;-33.424;-70.638;2022-07-23T02:13:22;36.13;;;18.97;;
34060;SDS011;20336;-33.424;-70.638;2022-07-23T02:15:49;38.93;;;19.77;;
34060;SDS011;20336;-33.424;-70.638;2022-07-23T02:18:16;35.50;;;18.03;;
34060;SDS011;20336;-33.424;-70.638;2022-07-23T02:20:43;29.70;;;16.63;;
34060;SDS011;20336;-33.424;-70.638;2022-07-23T02:23:10;34.10;;;18.63;;
34060;SDS011;20336;-33.424;-70.638;2022-07-23T02:25:36;41.13;;;20.17;;
34060;SDS011;20336;-33.424;-70.638;2022-07-23T02:28:03;37.00;;;18.97;;
34060;SDS011;20336;-33.424;-70.638;2022-07-23T02:30:31;36.50;;;18.47;;
34060;SDS011;20336;-33.424;-70.638;2022-07-23T02:32:58;34.20;;;17.80;;
34060;SDS011;20336;-33.424;-70.638;2022-07-23T02:35:25;33.03;;;18.40;;
34060;SDS011;20336;-33.424;-70.638;2022-07-23T02:37:52;34.63;;;18.33;;
34060;SDS011;20336;-33.424;-70.638;2022-07-23T02:40:19;34.00;;;18.30;;
34060;SDS011;20336;-33.424;-70.638;2022-07-23T02:42:45;36.63;;;19.23;;
34060;SDS011;20336;-33.424;-70.638;2022-07-23T02:45:12;39.27;;;19.57;;
34060;SDS011;20336;-33.424;-70.638;2022-07-23T02:47:39;35.03;;;18.47;;
34060;SDS011;20336;-33.424;-70.638;2022-07-23T02:50:06;40.10;;;19.27;;
34060;SDS011;20336;-33.424;-70.638;2022-07-23T02:52:34;31.93;;;18.30;;
34060;SDS011;20336;-33.424;-70.638;2022-07-23T02:55:01;35.67;;;18.50;;
34060;SDS011;20336;-33.424;-70.638;2022-07-23T02:57:28;31.77;;;16.87;;
34060;SDS011;20336;-33.424;-70.638;2022-07-23T02:59:54;30.83;;;17.07;;
34060;SDS011;20336;-33.424;-70.638;2022-07-23T03:02:21;31.47;;;16.30;;
34060;SDS011;20336;-33.424;-70.638;2022-07-23T03:04:49;27.73;;;14.83;;
34060;SDS011;20336;-33.424;-70.638;2022-07-23T03:07:16;25.97;;;14.37;;
34060;SDS011;20336;-33.424;-70.638;2022-07-23T03:09:43;28.20;;;14.67;;
34060;SDS011;20336;-33.424;-70.638;2022-07-23T03:12:10;26.90;;;15.17;;
34060;SDS011;20336;-33.424;-70.638;2022-07-23T03:14:37;29.37;;;16.07;;
34060;SDS011;20336;-33.424;-70.638;2022-07-23T03:17:04;32.00;;;16.13;;
34060;SDS011;20336;-33.424;-70.638;2022-07-23T03:19:31;38.10;;;16.83;;
34060;SDS011;20336;-33.424;-70.638;2022-07-23T03:21:57;31.77;;;15.87;;
34060;SDS011;20336;-33.424;-70.638;2022-07-23T03:24:24;35.00;;;16.70;;
34060;SDS011;20336;-33.424;-70.638;2022-07-23T03:27:11;32.80;;;17.27;;
34060;SDS011;20336;-33.424;-70.638;2022-07-23T03:29:38;32.00;;;16.30;;
34060;SDS011;20336;-33.424;-70.638;2022-07-23T03:32:05;31.13;;;16.57;;
34060;SDS011;20336;-33.424;-70.638;2022-07-23T03:34:32;34.57;;;16.70;;
34060;SDS011;20336;-33.424;-70.638;2022-07-23T03:36:59;30.30;;;16.33;;
34060;SDS011;20336;-33.424;-70.638;2022-07-23T03:39:25;28.07;;;15.10;;
34060;SDS011;20336;-33.424;-70.638;2022-07-23T03:41:52;30.50;;;15.63;;
34060;SDS011;20336;-33.424;-70.638;2022-07-23T03:44:19;31.53;;;16.13;;
34060;SDS011;20336;-33.424;-70.638;2022-07-23T03:46:46;31.33;;;14.97;;
34060;SDS011;20336;-33.424;-70.638;2022-07-23T03:49:13;33.67;;;16.60;;
34060;SDS011;20336;-33.424;-70.638;2022-07-23T03:51:39;31.03;;;15.23;;
34060;SDS011;20336;-33.424;-70.638;2022-07-23T03:54:06;31.23;;;15.97;;
34060;SDS011;20336;-33.424;-70.638;2022-07-23T03:56:33;30.47;;;16.93;;
34060;SDS011;20336;-33.424;-70.638;2022-07-23T03:59:00;34.23;;;17.20;;
34060;SDS011;20336;-33.424;-70.638;2022-07-23T04:01:27;32.00;;;17.03;;
34060;SDS011;20336;-33.424;-70.638;2022-07-23T04:03:53;28.07;;;15.77;;
34060;SDS011;20336;-33.424;-70.638;2022-07-23T04:06:20;31.97;;;16.03;;
34060;SDS011;20336;-33.424;-70.638;2022-07-23T04:08:47;28.63;;;15.93;;
34060;SDS011;20336;-33.424;-70.638;2022-07-23T04:11:14;27.03;;;15.10;;
34060;SDS011;20336;-33.424;-70.638;2022-07-23T04:13:41;26.30;;;15.20;;
34060;SDS011;20336;-33.424;-70.638;2022-07-23T04:16:07;31.30;;;17.33;;
34060;SDS011;20336;-33.424;-70.638;2022-07-23T04:18:34;29.87;;;16.67;;
34060;SDS011;20336;-33.424;-70.638;2022-07-23T04:21:01;31.77;;;16.87;;
34060;SDS011;20336;-33.424;-70.638;2022-07-23T04:23:28;31.83;;;18.17;;
34060;SDS011;20336;-33.424;-70.638;2022-07-23T04:25:55;36.13;;;19.10;;
34060;SDS011;20336;-33.424;-70.638;2022-07-23T04:28:22;37.53;;;20.53;;
34060;SDS011;20336;-33.424;-70.638;2022-07-23T04:30:48;44.43;;;21.83;;
34060;SDS011;20336;-33.424;-70.638;2022-07-23T04:33:15;37.30;;;20.80;;
34060;SDS011;20336;-33.424;-70.638;2022-07-23T04:35:42;39.50;;;21.30;;
34060;SDS011;20336;-33.424;-70.638;2022-07-23T04:38:09;41.20;;;21.30;;
34060;SDS011;20336;-33.424;-70.638;2022-07-23T04:40:36;43.30;;;21.57;;
34060;SDS011;20336;-33.424;-70.638;2022-07-23T04:43:03;38.47;;;20.40;;
34060;SDS011;20336;-33.424;-70.638;2022-07-23T04:45:30;45.53;;;21.90;;
34060;SDS011;20336;-33.424;-70.638;2022-07-23T04:47:57;43.93;;;22.00;;
34060;SDS011;20336;-33.424;-70.638;2022-07-23T04:50:24;42.53;;;21.30;;
34060;SDS011;20336;-33.424;-70.638;2022-07-23T04:52:50;47.77;;;22.83;;
34060;SDS011;20336;-33.424;-70.638;2022-07-23T04:55:17;44.37;;;21.57;;
34060;SDS011;20336;-33.424;-70.638;2022-07-23T04:57:44;33.67;;;18.03;;
34060;SDS011;20336;-33.424;-70.638;2022-07-23T05:00:11;28.60;;;15.47;;
34060;SDS011;20336;-33.424;-70.638;2022-07-23T05:02:38;25.93;;;14.67;;
34060;SDS011;20336;-33.424;-70.638;2022-07-23T05:05:05;25.43;;;13.20;;
34060;SDS011;20336;-33.424;-70.638;2022-07-23T05:07:32;22.07;;;13.37;;
34060;SDS011;20336;-33.424;-70.638;2022-07-23T05:09:59;23.27;;;13.43;;
34060;SDS011;20336;-33.424;-70.638;2022-07-23T05:12:26;23.40;;;13.40;;
34060;SDS011;20336;-33.424;-70.638;2022-07-23T05:14:53;24.83;;;14.17;;
34060;SDS011;20336;-33.424;-70.638;2022-07-23T05:17:19;30.83;;;15.97;;
34060;SDS011;20336;-33.424;-70.638;2022-07-23T05:19:46;29.50;;;15.50;;
34060;SDS011;20336;-33.424;-70.638;2022-07-23T05:22:13;31.83;;;17.30;;
34060;SDS011;20336;-33.424;-70.638;2022-07-23T05:24:40;33.87;;;17.93;;
34060;SDS011;20336;-33.424;-70.638;2022-07-23T05:27:08;35.93;;;17.93;;
34060;SDS011;20336;-33.424;-70.638;2022-07-23T05:29:35;38.67;;;18.23;;
34060;SDS011;20336;-33.424;-70.638;2022-07-23T05:32:01;34.40;;;16.93;;
34060;SDS011;20336;-33.424;-70.638;2022-07-23T05:34:28;31.43;;;17.07;;
34060;SDS011;20336;-33.424;-70.638;2022-07-23T05:36:55;25.33;;;14.43;;
34060;SDS011;20336;-33.424;-70.638;2022-07-23T05:39:22;22.03;;;11.83;;
34060;SDS011;20336;-33.424;-70.638;2022-07-23T05:41:49;22.07;;;10.97;;
34060;SDS011;20336;-33.424;-70.638;2022-07-23T05:44:16;21.57;;;10.57;;
34060;SDS011;20336;-33.424;-70.638;2022-07-23T05:46:42;17.70;;;8.60;;
34060;SDS011;20336;-33.424;-70.638;2022-07-23T05:49:09;17.10;;;6.87;;
34060;SDS011;20336;-33.424;-70.638;2022-07-23T05:51:36;15.53;;;7.73;;
34060;SDS011;20336;-33.424;-70.638;2022-07-23T05:54:03;20.63;;;11.03;;
34060;SDS011;20336;-33.424;-70.638;2022-07-23T05:56:30;22.60;;;13.33;;
34060;SDS011;20336;-33.424;-70.638;2022-07-23T05:58:56;31.13;;;15.40;;
34060;SDS011;20336;-33.424;-70.638;2022-07-23T06:01:23;25.63;;;13.93;;
34060;SDS011;20336;-33.424;-70.638;2022-07-23T06:03:50;35.30;;;17.90;;
34060;SDS011;20336;-33.424;-70.638;2022-07-23T06:06:17;40.77;;;21.80;;
34060;SDS011;20336;-33.424;-70.638;2022-07-23T06:08:44;53.30;;;21.93;;
34060;SDS011;20336;-33.424;-70.638;2022-07-23T06:11:10;40.47;;;19.87;;
34060;SDS011;20336;-33.424;-70.638;2022-07-23T06:13:37;51.37;;;24.07;;
34060;SDS011;20336;-33.424;-70.638;2022-07-23T06:16:04;49.17;;;22.90;;
34060;SDS011;20336;-33.424;-70.638;2022-07-23T06:18:31;44.93;;;21.30;;
34060;SDS011;20336;-33.424;-70.638;2022-07-23T06:20:58;48.70;;;22.10;;
34060;SDS011;20336;-33.424;-70.638;2022-07-23T06:23:24;43.03;;;21.37;;
34060;SDS011;20336;-33.424;-70.638;2022-07-23T06:25:51;43.87;;;21.53;;
34060;SDS011;20336;-33.424;-70.638;2022-07-23T06:28:18;46.43;;;20.87;;
34060;SDS011;20336;-33.424;-70.638;2022-07-23T06:30:45;39.27;;;20.87;;
34060;SDS011;20336;-33.424;-70.638;2022-07-23T06:33:12;34.17;;;18.07;;
34060;SDS011;20336;-33.424;-70.638;2022-07-23T06:35:39;33.73;;;19.50;;
34060;SDS011;20336;-33.424;-70.638;2022-07-23T06:38:06;34.40;;;18.00;;
34060;SDS011;20336;-33.424;-70.638;2022-07-23T06:40:32;34.97;;;18.53;;
34060;SDS011;20336;-33.424;-70.638;2022-07-23T06:42:59;31.50;;;16.47;;
34060;SDS011;20336;-33.424;-70.638;2022-07-23T06:45:26;34.67;;;18.23;;
34060;SDS011;20336;-33.424;-70.638;2022-07-23T06:47:53;34.80;;;18.50;;
34060;SDS011;20336;-33.424;-70.638;2022-07-23T06:50:20;35.03;;;17.60;;
34060;SDS011;20336;-33.424;-70.638;2022-07-23T06:52:47;33.37;;;17.00;;
34060;SDS011;20336;-33.424;-70.638;2022-07-23T06:55:14;33.17;;;17.57;;
34060;SDS011;20336;-33.424;-70.638;2022-07-23T06:57:41;36.20;;;19.03;;
34060;SDS011;20336;-33.424;-70.638;2022-07-23T07:00:07;42.77;;;19.13;;
34060;SDS011;20336;-33.424;-70.638;2022-07-23T07:02:35;35.23;;;17.03;;
34060;SDS011;20336;-33.424;-70.638;2022-07-23T07:05:02;33.83;;;16.97;;
34060;SDS011;20336;-33.424;-70.638;2022-07-23T07:07:29;35.17;;;16.90;;
34060;SDS011;20336;-33.424;-70.638;2022-07-23T07:09:56;37.37;;;18.50;;
34060;SDS011;20336;-33.424;-70.638;2022-07-23T07:12:23;46.63;;;20.37;;
34060;SDS011;20336;-33.424;-70.638;2022-07-23T07:14:50;38.17;;;19.50;;
34060;SDS011;20336;-33.424;-70.638;2022-07-23T07:17:16;44.27;;;23.37;;
34060;SDS011;20336;-33.424;-70.638;2022-07-23T07:19:43;39.23;;;21.70;;
34060;SDS011;20336;-33.424;-70.638;2022-07-23T07:22:10;48.23;;;24.50;;
34060;SDS011;20336;-33.424;-70.638;2022-07-23T07:24:37;40.17;;;21.53;;
34060;SDS011;20336;-33.424;-70.638;2022-07-23T07:27:03;44.87;;;23.57;;
34060;SDS011;20336;-33.424;-70.638;2022-07-23T07:29:31;48.87;;;22.67;;
34060;SDS011;20336;-33.424;-70.638;2022-07-23T07:31:57;43.17;;;21.77;;
34060;SDS011;20336;-33.424;-70.638;2022-07-23T07:34:24;44.17;;;25.10;;
34060;SDS011;20336;-33.424;-70.638;2022-07-23T07:36:51;47.20;;;24.20;;
34060;SDS011;20336;-33.424;-70.638;2022-07-23T07:39:18;38.87;;;22.47;;
34060;SDS011;20336;-33.424;-70.638;2022-07-23T07:41:45;48.33;;;24.23;;
34060;SDS011;20336;-33.424;-70.638;2022-07-23T07:44:11;48.83;;;23.73;;
34060;SDS011;20336;-33.424;-70.638;2022-07-23T07:46:38;44.17;;;23.60;;
34060;SDS011;20336;-33.424;-70.638;2022-07-23T07:49:05;43.70;;;23.37;;
34060;SDS011;20336;-33.424;-70.638;2022-07-23T07:51:32;49.70;;;23.77;;
34060;SDS011;20336;-33.424;-70.638;2022-07-23T07:54:00;55.37;;;24.77;;
34060;SDS011;20336;-33.424;-70.638;2022-07-23T07:56:27;46.13;;;23.93;;
34060;SDS011;20336;-33.424;-70.638;2022-07-23T07:58:53;49.07;;;24.17;;
34060;SDS011;20336;-33.424;-70.638;2022-07-23T08:01:20;38.03;;;22.10;;
34060;SDS011;20336;-33.424;-70.638;2022-07-23T08:03:47;44.00;;;22.77;;
34060;SDS011;20336;-33.424;-70.638;2022-07-23T08:06:14;39.23;;;21.07;;
34060;SDS011;20336;-33.424;-70.638;2022-07-23T08:08:40;36.70;;;20.90;;
34060;SDS011;20336;-33.424;-70.638;2022-07-23T08:11:07;35.93;;;21.37;;
34060;SDS011;20336;-33.424;-70.638;2022-07-23T08:13:34;45.93;;;22.57;;
34060;SDS011;20336;-33.424;-70.638;2022-07-23T08:16:01;40.43;;;21.40;;
34060;SDS011;20336;-33.424;-70.638;2022-07-23T08:18:28;38.87;;;22.50;;
34060;SDS011;20336;-33.424;-70.638;2022-07-23T08:20:55;43.77;;;22.43;;
34060;SDS011;20336;-33.424;-70.638;2022-07-23T08:23:21;43.97;;;22.27;;
34060;SDS011;20336;-33.424;-70.638;2022-07-23T08:25:48;48.00;;;24.17;;
34060;SDS011;20336;-33.424;-70.638;2022-07-23T08:28:15;41.80;;;23.03;;
34060;SDS011;20336;-33.424;-70.638;2022-07-23T08:30:43;43.43;;;22.73;;
34060;SDS011;20336;-33.424;-70.638;2022-07-23T08:33:15;44.50;;;23.23;;
34060;SDS011;20336;-33.424;-70.638;2022-07-23T08:35:46;45.23;;;22.40;;
34060;SDS011;20336;-33.424;-70.638;2022-07-23T08:38:16;46.90;;;24.00;;
34060;SDS011;20336;-33.424;-70.638;2022-07-23T08:40:46;39.07;;;21.23;;
34060;SDS011;20336;-33.424;-70.638;2022-07-23T08:43:20;41.40;;;23.33;;
34060;SDS011;20336;-33.424;-70.638;2022-07-23T08:45:52;58.83;;;28.63;;
34060;SDS011;20336;-33.424;-70.638;2022-07-23T08:48:31;45.43;;;23.50;;
34060;SDS011;20336;-33.424;-70.638;2022-07-23T08:50:59;41.73;;;22.43;;
34060;SDS011;20336;-33.424;-70.638;2022-07-23T08:53:28;52.00;;;25.60;;
34060;SDS011;20336;-33.424;-70.638;2022-07-23T08:55:59;60.30;;;30.90;;
34060;SDS011;20336;-33.424;-70.638;2022-07-23T08:58:27;56.23;;;27.57;;
34060;SDS011;20336;-33.424;-70.638;2022-07-23T09:00:55;54.73;;;28.83;;
34060;SDS011;20336;-33.424;-70.638;2022-07-23T09:03:23;57.63;;;29.13;;
34060;SDS011;20336;-33.424;-70.638;2022-07-23T09:05:52;66.43;;;30.70;;
34060;SDS011;20336;-33.424;-70.638;2022-07-23T09:08:26;58.53;;;30.70;;
34060;SDS011;20336;-33.424;-70.638;2022-07-23T09:11:05;53.87;;;28.00;;
34060;SDS011;20336;-33.424;-70.638;2022-07-23T09:13:38;50.00;;;24.63;;
34060;SDS011;20336;-33.424;-70.638;2022-07-23T09:16:13;49.90;;;25.20;;
34060;SDS011;20336;-33.424;-70.638;2022-07-23T09:18:43;50.57;;;24.53;;
34060;SDS011;20336;-33.424;-70.638;2022-07-23T09:21:20;50.30;;;24.13;;
34060;SDS011;20336;-33.424;-70.638;2022-07-23T09:23:55;49.87;;;25.63;;
34060;SDS011;20336;-33.424;-70.638;2022-07-23T09:26:24;46.27;;;24.00;;
34060;SDS011;20336;-33.424;-70.638;2022-07-23T09:28:59;40.23;;;22.87;;
34060;SDS011;20336;-33.424;-70.638;2022-07-23T09:31:33;44.63;;;24.23;;
34060;SDS011;20336;-33.424;-70.638;2022-07-23T09:34:15;45.63;;;23.40;;
34060;SDS011;20336;-33.424;-70.638;2022-07-23T09:36:52;44.00;;;22.83;;
34060;SDS011;20336;-33.424;-70.638;2022-07-23T09:39:31;42.53;;;21.60;;
34060;SDS011;20336;-33.424;-70.638;2022-07-23T09:44:49;43.40;;;21.60;;
34060;SDS011;20336;-33.424;-70.638;2022-07-23T09:47:18;35.13;;;19.80;;
34060;SDS011;20336;-33.424;-70.638;2022-07-23T09:50:03;33.67;;;19.37;;
34060;SDS011;20336;-33.424;-70.638;2022-07-23T09:52:33;33.87;;;18.73;;
34060;SDS011;20336;-33.424;-70.638;2022-07-23T09:55:11;35.30;;;18.03;;
34060;SDS011;20336;-33.424;-70.638;2022-07-23T09:57:38;29.60;;;17.37;;
34060;SDS011;20336;-33.424;-70.638;2022-07-23T10:00:10;34.10;;;17.87;;
34060;SDS011;20336;-33.424;-70.638;2022-07-23T10:02:37;36.63;;;17.93;;
34060;SDS011;20336;-33.424;-70.638;2022-07-23T10:05:05;36.67;;;17.27;;
34060;SDS011;20336;-33.424;-70.638;2022-07-23T10:07:34;27.27;;;16.27;;
34060;SDS011;20336;-33.424;-70.638;2022-07-23T10:10:05;34.93;;;18.40;;
34060;SDS011;20336;-33.424;-70.638;2022-07-23T10:12:33;33.03;;;16.80;;
34060;SDS011;20336;-33.424;-70.638;2022-07-23T10:15:03;27.40;;;16.27;;
34060;SDS011;20336;-33.424;-70.638;2022-07-23T10:17:32;28.17;;;16.50;;
34060;SDS011;20336;-33.424;-70.638;2022-07-23T10:20:00;32.13;;;16.57;;
34060;SDS011;20336;-33.424;-70.638;2022-07-23T10:22:28;26.30;;;14.37;;
34060;SDS011;20336;-33.424;-70.638;2022-07-23T10:30:44;28.57;;;13.80;;
34060;SDS011;20336;-33.424;-70.638;2022-07-23T10:33:32;27.80;;;14.20;;
34060;SDS011;20336;-33.424;-70.638;2022-07-23T10:36:19;26.40;;;14.73;;
34060;SDS011;20336;-33.424;-70.638;2022-07-23T10:39:05;33.47;;;17.00;;
34060;SDS011;20336;-33.424;-70.638;2022-07-23T10:41:35;41.20;;;19.27;;
34060;SDS011;20336;-33.424;-70.638;2022-07-23T10:46:34;42.13;;;19.40;;
34060;SDS011;20336;-33.424;-70.638;2022-07-23T10:49:20;46.97;;;24.27;;
34060;SDS011;20336;-33.424;-70.638;2022-07-23T10:54:40;47.87;;;21.77;;
34060;SDS011;20336;-33.424;-70.638;2022-07-23T10:57:08;52.87;;;22.37;;
34060;SDS011;20336;-33.424;-70.638;2022-07-23T11:02:29;46.57;;;22.20;;
34060;SDS011;20336;-33.424;-70.638;2022-07-23T11:05:04;57.03;;;28.00;;
34060;SDS011;20336;-33.424;-70.638;2022-07-23T11:07:33;54.07;;;28.27;;
34060;SDS011;20336;-33.424;-70.638;2022-07-23T11:10:01;59.63;;;31.37;;
34060;SDS011;20336;-33.424;-70.638;2022-07-23T11:17:25;71.57;;;37.63;;
34060;SDS011;20336;-33.424;-70.638;2022-07-23T11:22:39;77.30;;;38.30;;
34060;SDS011;20336;-33.424;-70.638;2022-07-23T11:25:51;78.47;;;40.20;;
34060;SDS011;20336;-33.424;-70.638;2022-07-23T11:28:11;79.97;;;38.53;;
34060;SDS011;20336;-33.424;-70.638;2022-07-23T11:30:44;73.03;;;35.80;;
34060;SDS011;20336;-33.424;-70.638;2022-07-23T11:35:51;78.37;;;36.57;;
34060;SDS011;20336;-33.424;-70.638;2022-07-23T11:38:28;72.37;;;36.67;;
34060;SDS011;20336;-33.424;-70.638;2022-07-23T11:40:58;70.93;;;33.87;;
34060;SDS011;20336;-33.424;-70.638;2022-07-23T11:43:25;74.20;;;37.57;;
34060;SDS011;20336;-33.424;-70.638;2022-07-23T11:45:53;68.00;;;34.90;;
34060;SDS011;20336;-33.424;-70.638;2022-07-23T11:48:25;68.70;;;34.33;;
34060;SDS011;20336;-33.424;-70.638;2022-07-23T11:50:54;71.17;;;34.13;;
34060;SDS011;20336;-33.424;-70.638;2022-07-23T11:53:23;62.33;;;31.33;;
34060;SDS011;20336;-33.424;-70.638;2022-07-23T11:55:50;62.30;;;30.70;;
34060;SDS011;20336;-33.424;-70.638;2022-07-23T11:58:18;58.17;;;30.30;;
34060;SDS011;20336;-33.424;-70.638;2022-07-23T12:00:45;57.57;;;29.87;;
34060;SDS011;20336;-33.424;-70.638;2022-07-23T12:03:12;57.60;;;27.73;;
34060;SDS011;20336;-33.424;-70.638;2022-07-23T12:05:39;57.00;;;29.13;;
34060;SDS011;20336;-33.424;-70.638;2022-07-23T12:08:07;52.23;;;27.40;;
34060;SDS011;20336;-33.424;-70.638;2022-07-23T12:10:36;57.07;;;29.07;;
34060;SDS011;20336;-33.424;-70.638;2022-07-23T12:13:10;61.07;;;31.53;;
34060;SDS011;20336;-33.424;-70.638;2022-07-23T12:15:39;55.87;;;29.43;;
34060;SDS011;20336;-33.424;-70.638;2022-07-23T12:18:08;51.70;;;27.90;;
34060;SDS011;20336;-33.424;-70.638;2022-07-23T12:20:41;57.50;;;28.97;;
34060;SDS011;20336;-33.424;-70.638;2022-07-23T12:23:10;62.70;;;30.07;;
34060;SDS011;20336;-33.424;-70.638;2022-07-23T12:25:40;57.80;;;29.63;;
34060;SDS011;20336;-33.424;-70.638;2022-07-23T12:28:13;60.53;;;32.17;;
34060;SDS011;20336;-33.424;-70.638;2022-07-23T12:30:50;50.73;;;26.90;;
34060;SDS011;20336;-33.424;-70.638;2022-07-23T12:35:52;56.13;;;29.07;;
34060;SDS011;20336;-33.424;-70.638;2022-07-23T12:38:21;57.00;;;28.97;;
34060;SDS011;20336;-33.424;-70.638;2022-07-23T12:40:54;55.17;;;30.13;;
34060;SDS011;20336;-33.424;-70.638;2022-07-23T12:43:30;59.50;;;30.80;;
34060;SDS011;20336;-33.424;-70.638;2022-07-23T12:51:24;55.30;;;30.30;;
34060;SDS011;20336;-33.424;-70.638;2022-07-23T12:53:58;68.97;;;31.63;;
34060;SDS011;20336;-33.424;-70.638;2022-07-23T12:56:29;56.77;;;29.43;;
34060;SDS011;20336;-33.424;-70.638;2022-07-23T12:58:58;60.40;;;30.17;;
34060;SDS011;20336;-33.424;-70.638;2022-07-23T13:01:35;61.63;;;31.40;;
34060;SDS011;20336;-33.424;-70.638;2022-07-23T13:04:13;60.90;;;30.47;;
34060;SDS011;20336;-33.424;-70.638;2022-07-23T13:06:46;65.03;;;31.63;;
34060;SDS011;20336;-33.424;-70.638;2022-07-23T13:09:29;56.47;;;30.43;;
34060;SDS011;20336;-33.424;-70.638;2022-07-23T13:11:58;62.97;;;31.17;;
34060;SDS011;20336;-33.424;-70.638;2022-07-23T13:14:25;57.80;;;30.40;;
34060;SDS011;20336;-33.424;-70.638;2022-07-23T13:16:53;59.00;;;30.40;;
34060;SDS011;20336;-33.424;-70.638;2022-07-23T13:19:20;54.20;;;29.73;;
34060;SDS011;20336;-33.424;-70.638;2022-07-23T13:21:47;57.30;;;29.93;;
34060;SDS011;20336;-33.424;-70.638;2022-07-23T13:24:15;53.47;;;29.07;;
34060;SDS011;20336;-33.424;-70.638;2022-07-23T13:26:42;53.13;;;29.30;;
34060;SDS011;20336;-33.424;-70.638;2022-07-23T13:29:09;52.40;;;29.87;;
34060;SDS011;20336;-33.424;-70.638;2022-07-23T13:31:36;57.03;;;31.23;;
34060;SDS011;20336;-33.424;-70.638;2022-07-23T13:34:04;50.10;;;29.63;;
34060;SDS011;20336;-33.424;-70.638;2022-07-23T13:36:32;45.40;;;26.67;;
34060;SDS011;20336;-33.424;-70.638;2022-07-23T13:38:59;60.23;;;31.30;;
34060;SDS011;20336;-33.424;-70.638;2022-07-23T13:41:25;48.50;;;27.07;;
34060;SDS011;20336;-33.424;-70.638;2022-07-23T13:43:52;51.83;;;29.17;;
34060;SDS011;20336;-33.424;-70.638;2022-07-23T13:46:21;58.90;;;31.60;;
34060;SDS011;20336;-33.424;-70.638;2022-07-23T13:48:48;53.83;;;28.77;;
34060;SDS011;20336;-33.424;-70.638;2022-07-23T13:51:14;55.23;;;28.87;;
34060;SDS011;20336;-33.424;-70.638;2022-07-23T13:53:43;53.73;;;29.37;;
34060;SDS011;20336;-33.424;-70.638;2022-07-23T13:56:11;57.30;;;29.77;;
34060;SDS011;20336;-33.424;-70.638;2022-07-23T13:58:38;53.87;;;29.27;;
34060;SDS011;20336;-33.424;-70.638;2022-07-23T14:01:05;51.10;;;28.73;;
34060;SDS011;20336;-33.424;-70.638;2022-07-23T14:03:32;49.57;;;29.33;;
34060;SDS011;20336;-33.424;-70.638;2022-07-23T14:05:59;50.23;;;28.53;;
34060;SDS011;20336;-33.424;-70.638;2022-07-23T14:08:26;48.70;;;26.33;;
34060;SDS011;20336;-33.424;-70.638;2022-07-23T14:10:53;46.30;;;25.90;;
34060;SDS011;20336;-33.424;-70.638;2022-07-23T14:13:20;42.80;;;26.00;;
34060;SDS011;20336;-33.424;-70.638;2022-07-23T14:15:47;42.37;;;25.33;;
34060;SDS011;20336;-33.424;-70.638;2022-07-23T14:18:15;45.13;;;26.50;;
34060;SDS011;20336;-33.424;-70.638;2022-07-23T14:20:43;41.00;;;23.33;;
34060;SDS011;20336;-33.424;-70.638;2022-07-23T14:23:10;42.90;;;23.83;;
34060;SDS011;20336;-33.424;-70.638;2022-07-23T14:25:37;44.73;;;26.03;;